Time;durP1;ratioP1;P1;durP2;ratioP2;P2;SDS_P1;SDS_P2;PMS_P1;PMS_P2;Temp;Humidity;BMP_temperature;BMP_pressure;BME280_temperature;BME280_humidity;BME280_pressure;Samples;Min_cycle;Max_cycle;Signal;HPM_P1;HPM_P2
2022/10/20 00:01:08;;;;;;;9.00;5.15;;;;;;;;;;5054521;28;20201;-67
2022/10/20 00:03:35;;;;;;;8.55;4.10;;;;;;;;;;5054529;28;20202;-66
2022/10/20 00:06:09;;;;;;;8.00;5.07;;;;;;;;;;5054056;28;20216;-67
2022/10/20 00:08:37;;;;;;;6.97;4.72;;;;;;;;;;5054587;28;20195;-66
2022/10/20 00:11:04;;;;;;;5.90;4.80;;;;;;;;;;5054444;28;20205;-66
2022/10/20 00:13:31;;;;;;;6.75;5.25;;;;;;;;;;5054202;28;20218;-66
2022/10/20 00:15:59;;;;;;;5.50;4.68;;;;;;;;;;5054628;28;20199;-66
2022/10/20 00:18:28;;;;;;;6.75;4.97;;;;;;;;;;5053910;28;20194;-66
2022/10/20 00:20:55;;;;;;;8.25;5.20;;;;;;;;;;5054204;28;20285;-66
2022/10/20 00:23:22;;;;;;;5.35;4.78;;;;;;;;;;5054178;28;20199;-66
2022/10/20 00:25:50;;;;;;;5.38;4.90;;;;;;;;;;5053785;28;20236;-66
2022/10/20 00:28:17;;;;;;;6.53;5.80;;;;;;;;;;5054055;28;20209;-67
2022/10/20 00:30:44;;;;;;;9.30;5.93;;;;;;;;;;5054036;28;20198;-66
2022/10/20 00:33:11;;;;;;;6.95;5.85;;;;;;;;;;5053937;28;20218;-66
2022/10/20 00:35:40;;;;;;;5.97;4.78;;;;;;;;;;5054208;28;20193;-66
2022/10/20 00:38:07;;;;;;;6.22;5.63;;;;;;;;;;5053560;28;20214;-66
2022/10/20 00:40:34;;;;;;;7.90;5.30;;;;;;;;;;5053573;28;20209;-67
2022/10/20 00:43:01;;;;;;;5.30;4.80;;;;;;;;;;5053458;28;20210;-66
2022/10/20 00:45:28;;;;;;;6.30;4.80;;;;;;;;;;5053512;28;20202;-66
2022/10/20 00:47:57;;;;;;;7.57;5.32;;;;;;;;;;5053914;28;20197;-67
2022/10/20 00:50:26;;;;;;;7.00;5.60;;;;;;;;;;5053672;28;20198;-66
2022/10/20 00:52:55;;;;;;;7.40;4.88;;;;;;;;;;5053338;28;20222;-66
2022/10/20 00:55:24;;;;;;;7.20;5.95;;;;;;;;;;5053371;28;20645;-66
2022/10/20 00:57:52;;;;;;;8.27;5.97;;;;;;;;;;5053291;28;20199;-67
2022/10/20 01:00:19;;;;;;;7.05;5.65;;;;;;;;;;5053705;28;20561;-66
2022/10/20 01:02:47;;;;;;;7.63;5.82;;;;;;;;;;5053488;28;20220;-67
2022/10/20 01:05:14;;;;;;;10.50;5.15;;;;;;;;;;5053522;28;20198;-66
2022/10/20 01:07:41;;;;;;;7.88;5.72;;;;;;;;;;5053069;28;20201;-66
2022/10/20 01:10:11;;;;;;;7.00;5.95;;;;;;;;;;5053615;28;20204;-66
2022/10/20 01:12:45;;;;;;;8.38;5.95;;;;;;;;;;5053283;28;20218;-66
2022/10/20 01:15:16;;;;;;;5.95;5.40;;;;;;;;;;5053532;28;20189;-66
2022/10/20 01:17:45;;;;;;;6.75;5.80;;;;;;;;;;5053933;28;20189;-66
2022/10/20 01:20:22;;;;;;;8.40;7.60;;;;;;;;;;5053368;28;20201;-66
2022/10/20 01:23:08;;;;;;;7.25;6.00;;;;;;;;;;5053552;28;20187;-66
2022/10/20 01:25:46;;;;;;;12.40;6.38;;;;;;;;;;5052972;28;20244;-66
2022/10/20 01:28:21;;;;;;;8.95;7.00;;;;;;;;;;5052980;28;20684;-66
2022/10/20 01:30:49;;;;;;;14.07;6.97;;;;;;;;;;5053028;28;20187;-66
2022/10/20 01:33:20;;;;;;;7.97;6.43;;;;;;;;;;5052790;28;20237;-66
2022/10/20 01:35:52;;;;;;;9.48;6.88;;;;;;;;;;5053374;28;20194;-65
2022/10/20 01:38:23;;;;;;;7.90;6.82;;;;;;;;;;5053254;28;20194;-66
2022/10/20 01:40:53;;;;;;;10.02;7.47;;;;;;;;;;5053567;28;20179;-65
2022/10/20 01:43:23;;;;;;;7.63;6.78;;;;;;;;;;5053064;28;20209;-66
2022/10/20 01:45:51;;;;;;;8.45;6.32;;;;;;;;;;5053457;28;20194;-66
2022/10/20 01:48:20;;;;;;;8.45;7.30;;;;;;;;;;5053119;28;20197;-66
2022/10/20 01:50:48;;;;;;;9.23;8.32;;;;;;;;;;5053038;28;20203;-65
2022/10/20 01:53:16;;;;;;;10.00;6.85;;;;;;;;;;5052615;28;20225;-66
2022/10/20 01:55:43;;;;;;;7.50;6.32;;;;;;;;;;5053065;28;20195;-66
2022/10/20 01:58:20;;;;;;;10.18;6.57;;;;;;;;;;5053031;28;20662;-66
2022/10/20 02:00:50;;;;;;;8.70;6.78;;;;;;;;;;5053286;28;20209;-66
2022/10/20 02:03:30;;;;;;;9.50;7.40;;;;;;;;;;5054081;28;20195;-66
2022/10/20 02:06:05;;;;;;;8.60;7.18;;;;;;;;;;5056665;28;20202;-66
2022/10/20 02:08:37;;;;;;;11.38;6.82;;;;;;;;;;5056779;28;20207;-66
2022/10/20 02:11:05;;;;;;;8.15;6.85;;;;;;;;;;5056908;28;20187;-66
2022/10/20 02:13:33;;;;;;;9.32;7.15;;;;;;;;;;5056209;28;20229;-66
2022/10/20 02:16:02;;;;;;;8.10;7.30;;;;;;;;;;5056623;28;20199;-66
2022/10/20 02:18:31;;;;;;;9.93;7.30;;;;;;;;;;5056905;28;20205;-66
2022/10/20 02:20:59;;;;;;;7.95;7.15;;;;;;;;;;5056265;28;20195;-66
2022/10/20 02:23:27;;;;;;;7.88;7.07;;;;;;;;;;5056107;28;20202;-66
2022/10/20 02:25:55;;;;;;;12.50;7.47;;;;;;;;;;5056729;28;20223;-66
2022/10/20 02:28:23;;;;;;;10.23;8.10;;;;;;;;;;5056328;28;20195;-66
2022/10/20 02:30:50;;;;;;;16.77;8.27;;;;;;;;;;5056073;28;20195;-65
2022/10/20 02:33:19;;;;;;;15.13;7.57;;;;;;;;;;5055148;28;20318;-66
2022/10/20 02:35:50;;;;;;;13.30;8.50;;;;;;;;;;5056490;28;20636;-66
2022/10/20 02:38:17;;;;;;;10.18;8.88;;;;;;;;;;5056398;28;20198;-66
2022/10/20 02:40:45;;;;;;;10.00;8.30;;;;;;;;;;5057232;28;20205;-66
2022/10/20 02:43:12;;;;;;;10.25;8.95;;;;;;;;;;5076259;28;20202;-66
2022/10/20 02:45:40;;;;;;;12.15;10.38;;;;;;;;;;5076187;28;20204;-66
2022/10/20 02:48:08;;;;;;;11.63;8.27;;;;;;;;;;5076269;28;20194;-65
2022/10/20 02:50:36;;;;;;;11.23;9.57;;;;;;;;;;5075936;28;20203;-66
2022/10/20 02:53:04;;;;;;;13.02;9.70;;;;;;;;;;5076351;28;20700;-66
2022/10/20 02:55:31;;;;;;;11.02;10.02;;;;;;;;;;5075575;28;20206;-66
2022/10/20 02:57:58;;;;;;;14.90;10.60;;;;;;;;;;5075605;28;20197;-66
2022/10/20 03:00:28;;;;;;;14.75;10.23;;;;;;;;;;5075447;28;20194;-66
2022/10/20 03:02:55;;;;;;;14.73;10.63;;;;;;;;;;5075424;28;20201;-66
2022/10/20 03:05:23;;;;;;;11.57;9.65;;;;;;;;;;5075760;28;20194;-66
2022/10/20 03:07:51;;;;;;;13.20;10.65;;;;;;;;;;5075423;28;20205;-65
2022/10/20 03:10:18;;;;;;;12.15;9.45;;;;;;;;;;5075589;28;20563;-66
2022/10/20 03:12:45;;;;;;;12.68;10.85;;;;;;;;;;5075248;28;20202;-66
2022/10/20 03:15:13;;;;;;;12.88;10.07;;;;;;;;;;5074936;28;20201;-66
2022/10/20 03:17:40;;;;;;;13.85;10.45;;;;;;;;;;5075214;28;20194;-66
2022/10/20 03:20:08;;;;;;;15.10;11.95;;;;;;;;;;5075115;28;20198;-66
2022/10/20 03:22:35;;;;;;;12.45;11.15;;;;;;;;;;5075928;28;20197;-66
2022/10/20 03:25:04;;;;;;;16.08;12.00;;;;;;;;;;5075478;28;20237;-66
2022/10/20 03:27:31;;;;;;;14.32;10.90;;;;;;;;;;5074996;28;20197;-66
2022/10/20 03:29:58;;;;;;;17.52;11.45;;;;;;;;;;5074878;28;20200;-66
2022/10/20 03:32:26;;;;;;;14.13;10.75;;;;;;;;;;5074918;28;20677;-66
2022/10/20 03:34:53;;;;;;;17.95;11.57;;;;;;;;;;5075369;28;20226;-66
2022/10/20 03:37:20;;;;;;;12.65;11.35;;;;;;;;;;5075062;28;20197;-66
2022/10/20 03:39:47;;;;;;;15.95;12.23;;;;;;;;;;5074729;28;20197;-66
2022/10/20 03:42:16;;;;;;;13.27;11.50;;;;;;;;;;5074716;28;20204;-67
2022/10/20 03:44:44;;;;;;;12.75;11.43;;;;;;;;;;5074630;28;20327;-67
2022/10/20 03:47:12;;;;;;;13.27;11.70;;;;;;;;;;5075222;28;20567;-67
2022/10/20 03:49:39;;;;;;;15.18;12.23;;;;;;;;;;5075267;28;20652;-68
2022/10/20 03:52:06;;;;;;;14.32;12.38;;;;;;;;;;5074903;28;20685;-68
2022/10/20 03:54:35;;;;;;;12.68;11.30;;;;;;;;;;5091242;28;20220;-67
2022/10/20 03:57:02;;;;;;;19.13;12.07;;;;;;;;;;5094122;28;20559;-67
2022/10/20 03:59:31;;;;;;;14.00;12.45;;;;;;;;;;5094226;28;20197;-67
2022/10/20 04:01:58;;;;;;;17.50;12.30;;;;;;;;;;5094148;28;20203;-67
2022/10/20 04:04:25;;;;;;;14.68;12.43;;;;;;;;;;5094257;28;20562;-67
2022/10/20 04:06:52;;;;;;;14.80;13.25;;;;;;;;;;5094547;28;20241;-68
2022/10/20 04:09:19;;;;;;;16.73;11.85;;;;;;;;;;5093955;28;20193;-68
2022/10/20 04:11:47;;;;;;;14.00;12.55;;;;;;;;;;5094023;28;20196;-68
2022/10/20 04:14:14;;;;;;;15.00;12.27;;;;;;;;;;5094184;28;20216;-68
2022/10/20 04:16:42;;;;;;;13.77;12.30;;;;;;;;;;5093853;28;20193;-67
2022/10/20 04:19:09;;;;;;;18.83;12.45;;;;;;;;;;5094438;28;20550;-67
2022/10/20 04:21:37;;;;;;;13.68;12.20;;;;;;;;;;5094427;28;20193;-67
2022/10/20 04:24:06;;;;;;;12.68;11.40;;;;;;;;;;5094212;28;20227;-68
2022/10/20 04:26:33;;;;;;;14.25;12.75;;;;;;;;;;5093676;28;20228;-68
2022/10/20 04:29:01;;;;;;;12.65;11.35;;;;;;;;;;5094143;28;20197;-68
2022/10/20 04:31:28;;;;;;;14.57;12.93;;;;;;;;;;5094140;28;20282;-67
2022/10/20 04:33:57;;;;;;;14.25;11.85;;;;;;;;;;5093852;28;20223;-67
2022/10/20 04:36:24;;;;;;;14.75;12.55;;;;;;;;;;5093844;28;20548;-67
2022/10/20 04:38:51;;;;;;;15.35;11.82;;;;;;;;;;5094216;28;20196;-67
2022/10/20 04:41:18;;;;;;;15.60;13.25;;;;;;;;;;5094371;28;20278;-68
2022/10/20 04:43:50;;;;;;;16.80;12.95;;;;;;;;;;5094160;28;20197;-67
2022/10/20 04:46:17;;;;;;;13.95;12.55;;;;;;;;;;5094024;28;20185;-67
2022/10/20 04:48:45;;;;;;;18.75;13.15;;;;;;;;;;5094154;28;20198;-67
2022/10/20 04:51:14;;;;;;;14.70;13.20;;;;;;;;;;5093777;28;20204;-67
2022/10/20 04:53:41;;;;;;;16.80;12.73;;;;;;;;;;5093444;28;20222;-67
2022/10/20 04:56:11;;;;;;;19.38;13.48;;;;;;;;;;5093710;28;20196;-67
2022/10/20 04:58:38;;;;;;;17.20;14.23;;;;;;;;;;5093402;28;20295;-67
2022/10/20 05:01:07;;;;;;;15.98;12.65;;;;;;;;;;5093484;28;20205;-67
2022/10/20 05:03:34;;;;;;;19.23;14.63;;;;;;;;;;5093822;28;20554;-66
2022/10/20 05:06:12;;;;;;;15.35;12.00;;;;;;;;;;5093865;28;20528;-67
2022/10/20 05:08:41;;;;;;;13.38;12.07;;;;;;;;;;5093452;28;20193;-67
2022/10/20 05:11:09;;;;;;;17.65;12.70;;;;;;;;;;5093653;28;20199;-67
2022/10/20 05:13:36;;;;;;;16.15;12.63;;;;;;;;;;5094094;28;20197;-69
2022/10/20 05:16:04;;;;;;;14.95;12.52;;;;;;;;;;5093988;28;20196;-67
2022/10/20 05:18:31;;;;;;;13.50;12.10;;;;;;;;;;5093672;28;20228;-67
2022/10/20 05:20:58;;;;;;;14.98;13.48;;;;;;;;;;5093447;28;20554;-67
2022/10/20 05:23:26;;;;;;;15.40;13.80;;;;;;;;;;5093422;28;20669;-67
2022/10/20 05:25:54;;;;;;;16.55;13.30;;;;;;;;;;5093767;28;20232;-67
2022/10/20 05:28:22;;;;;;;15.70;12.50;;;;;;;;;;5093967;28;20285;-67
2022/10/20 05:30:49;;;;;;;16.65;12.30;;;;;;;;;;5093664;28;20196;-67
2022/10/20 05:33:16;;;;;;;19.15;14.13;;;;;;;;;;5093474;28;20235;-67
2022/10/20 05:35:43;;;;;;;16.20;13.95;;;;;;;;;;5093407;28;20228;-66
2022/10/20 05:38:10;;;;;;;16.60;13.40;;;;;;;;;;5096001;28;20199;-67
2022/10/20 05:40:37;;;;;;;15.25;13.68;;;;;;;;;;5097206;28;20203;-68
2022/10/20 05:43:06;;;;;;;15.10;13.50;;;;;;;;;;5097714;28;20193;-67
2022/10/20 05:45:33;;;;;;;14.07;12.68;;;;;;;;;;5097609;28;20207;-66
2022/10/20 05:48:01;;;;;;;15.57;11.82;;;;;;;;;;5097470;28;20196;-67
2022/10/20 05:50:28;;;;;;;23.23;16.52;;;;;;;;;;5097427;28;20212;-67
2022/10/20 05:52:55;;;;;;;25.92;20.13;;;;;;;;;;5097212;28;20200;-67
2022/10/20 05:55:22;;;;;;;15.00;13.48;;;;;;;;;;5097325;28;20217;-67
2022/10/20 05:57:49;;;;;;;16.40;13.65;;;;;;;;;;5097268;28;20215;-67
2022/10/20 06:00:28;;;;;;;14.00;12.52;;;;;;;;;;5096918;28;20207;-67
2022/10/20 06:02:55;;;;;;;16.23;11.68;;;;;;;;;;5096803;28;20271;-66
2022/10/20 06:05:23;;;;;;;14.55;11.93;;;;;;;;;;5096807;28;20647;-67
2022/10/20 06:07:50;;;;;;;19.80;13.32;;;;;;;;;;5097060;28;20200;-67
2022/10/20 06:10:17;;;;;;;13.55;11.40;;;;;;;;;;5097065;28;20270;-67
2022/10/20 06:12:44;;;;;;;13.95;12.25;;;;;;;;;;5096905;28;20276;-66
2022/10/20 06:15:11;;;;;;;16.17;11.75;;;;;;;;;;5096924;28;20227;-66
2022/10/20 06:17:40;;;;;;;14.77;13.27;;;;;;;;;;5096551;28;20190;-67
2022/10/20 06:20:07;;;;;;;12.80;11.50;;;;;;;;;;5096872;28;20271;-67
2022/10/20 06:22:35;;;;;;;16.58;11.00;;;;;;;;;;5096711;28;20196;-67
2022/10/20 06:25:02;;;;;;;14.15;11.38;;;;;;;;;;5096907;28;20233;-66
2022/10/20 06:27:29;;;;;;;14.98;12.15;;;;;;;;;;5096341;28;20193;-67
2022/10/20 06:29:56;;;;;;;18.50;12.02;;;;;;;;;;5097239;28;20257;-66
2022/10/20 06:32:23;;;;;;;15.18;11.70;;;;;;;;;;5096599;28;20194;-67
2022/10/20 06:34:52;;;;;;;12.70;11.38;;;;;;;;;;5096968;28;20224;-66
2022/10/20 06:37:20;;;;;;;18.00;11.55;;;;;;;;;;5096496;28;20227;-67
2022/10/20 06:39:47;;;;;;;13.15;11.70;;;;;;;;;;5096482;28;20194;-67
2022/10/20 06:42:14;;;;;;;12.30;10.32;;;;;;;;;;5096423;28;20193;-67
2022/10/20 06:44:41;;;;;;;12.85;10.77;;;;;;;;;;5096415;28;20193;-66
2022/10/20 06:47:09;;;;;;;12.45;11.25;;;;;;;;;;5096325;28;20190;-66
2022/10/20 06:49:36;;;;;;;11.65;10.45;;;;;;;;;;5095735;28;20646;-66
2022/10/20 06:52:05;;;;;;;11.98;10.10;;;;;;;;;;5096265;28;20194;-67
2022/10/20 06:54:32;;;;;;;14.75;11.05;;;;;;;;;;5096262;28;20225;-66
2022/10/20 06:56:59;;;;;;;15.15;10.77;;;;;;;;;;5096102;28;20205;-66
2022/10/20 06:59:26;;;;;;;14.70;11.02;;;;;;;;;;5096247;28;20196;-66
2022/10/20 07:01:53;;;;;;;13.00;10.43;;;;;;;;;;5095803;28;20207;-67
2022/10/20 07:04:21;;;;;;;13.60;9.90;;;;;;;;;;5096114;28;20197;-68
2022/10/20 07:06:48;;;;;;;12.00;10.45;;;;;;;;;;5096252;28;20449;-67
2022/10/20 07:09:17;;;;;;;10.85;8.68;;;;;;;;;;5095875;28;20201;-67
2022/10/20 07:11:45;;;;;;;11.82;9.38;;;;;;;;;;5095763;28;20192;-67
2022/10/20 07:14:13;;;;;;;10.65;9.55;;;;;;;;;;5095764;28;20220;-67
2022/10/20 07:16:40;;;;;;;11.18;10.05;;;;;;;;;;5096066;28;20196;-66
2022/10/20 07:19:07;;;;;;;11.40;10.20;;;;;;;;;;5095607;28;20201;-66
2022/10/20 07:21:35;;;;;;;13.18;9.88;;;;;;;;;;5095908;28;20200;-67
2022/10/20 07:24:03;;;;;;;12.80;10.32;;;;;;;;;;5094999;28;20229;-67
2022/10/20 07:26:33;;;;;;;12.18;10.85;;;;;;;;;;5095509;28;20564;-67
2022/10/20 07:29:02;;;;;;;10.95;9.75;;;;;;;;;;5095380;28;20231;-67
2022/10/20 07:31:30;;;;;;;10.85;9.70;;;;;;;;;;5095398;28;20201;-67
2022/10/20 07:33:59;;;;;;;13.00;10.33;;;;;;;;;;5095030;28;20659;-67
2022/10/20 07:36:27;;;;;;;11.57;9.55;;;;;;;;;;5095713;28;20578;-67
2022/10/20 07:38:55;;;;;;;15.63;11.27;;;;;;;;;;5095184;28;20197;-66
2022/10/20 07:41:22;;;;;;;12.43;11.13;;;;;;;;;;5095302;28;20795;-67
2022/10/20 07:43:51;;;;;;;14.00;11.00;;;;;;;;;;5094739;28;20450;-66
2022/10/20 07:46:19;;;;;;;11.85;9.52;;;;;;;;;;5095039;28;20198;-67
2022/10/20 07:48:46;;;;;;;13.68;9.77;;;;;;;;;;5094916;28;20208;-67
2022/10/20 07:51:14;;;;;;;11.48;10.43;;;;;;;;;;5094797;28;20226;-67
2022/10/20 07:53:42;;;;;;;12.07;9.93;;;;;;;;;;5094923;28;20747;-67
2022/10/20 07:56:09;;;;;;;10.40;9.40;;;;;;;;;;5094857;28;20834;-67
2022/10/20 07:58:36;;;;;;;11.18;9.85;;;;;;;;;;5094882;28;20447;-66
2022/10/20 08:01:05;;;;;;;11.35;10.25;;;;;;;;;;5094071;28;20200;-67
2022/10/20 08:03:33;;;;;;;18.98;10.93;;;;;;;;;;5094970;28;20219;-67
2022/10/20 08:06:00;;;;;;;11.27;9.48;;;;;;;;;;5094806;28;20190;-66
2022/10/20 08:08:27;;;;;;;11.05;9.07;;;;;;;;;;5094487;28;20189;-67
2022/10/20 08:10:54;;;;;;;11.43;10.23;;;;;;;;;;5094344;28;20205;-66
2022/10/20 08:13:22;;;;;;;11.00;9.60;;;;;;;;;;5094540;28;20216;-67
2022/10/20 08:15:49;;;;;;;10.75;9.43;;;;;;;;;;5094729;28;20777;-67
2022/10/20 08:18:18;;;;;;;12.00;10.13;;;;;;;;;;5094431;28;20200;-67
2022/10/20 08:20:45;;;;;;;11.30;10.17;;;;;;;;;;5094125;28;20949;-67
2022/10/20 08:23:12;;;;;;;10.27;9.10;;;;;;;;;;5094640;28;20806;-67
2022/10/20 08:25:39;;;;;;;11.43;10.23;;;;;;;;;;5094775;28;20481;-67
2022/10/20 08:28:06;;;;;;;11.53;10.17;;;;;;;;;;5094022;28;20667;-67
2022/10/20 08:30:34;;;;;;;13.20;9.10;;;;;;;;;;5094387;28;20439;-66
2022/10/20 08:33:01;;;;;;;16.23;9.83;;;;;;;;;;5094263;28;20443;-67
2022/10/20 08:35:29;;;;;;;10.73;9.70;;;;;;;;;;5094490;28;20490;-66
2022/10/20 08:37:57;;;;;;;12.97;10.63;;;;;;;;;;5094239;28;20446;-66
2022/10/20 08:40:25;;;;;;;14.13;10.20;;;;;;;;;;5094253;28;20436;-66
2022/10/20 08:42:53;;;;;;;14.23;9.83;;;;;;;;;;5093931;28;20448;-66
2022/10/20 08:45:21;;;;;;;10.93;9.13;;;;;;;;;;5094179;28;20447;-66
2022/10/20 08:47:50;;;;;;;10.70;9.67;;;;;;;;;;5093794;28;20450;-67
2022/10/20 08:50:18;;;;;;;11.87;9.73;;;;;;;;;;5093666;28;20452;-66
2022/10/20 08:52:48;;;;;;;11.97;10.40;;;;;;;;;;5094047;28;20797;-67
2022/10/20 08:55:27;;;;;;;13.30;10.00;;;;;;;;;;5093843;28;20478;-67
2022/10/20 08:57:57;;;;;;;16.30;10.83;;;;;;;;;;5094151;28;20427;-67
2022/10/20 09:00:25;;;;;;;10.90;9.80;;;;;;;;;;5093502;28;20436;-67
2022/10/20 09:02:53;;;;;;;9.90;9.00;;;;;;;;;;5094118;28;20445;-67
2022/10/20 09:05:22;;;;;;;12.27;11.07;;;;;;;;;;5093756;28;20451;-67
2022/10/20 09:07:52;;;;;;;11.43;9.50;;;;;;;;;;5093792;28;20956;-67
2022/10/20 09:10:25;;;;;;;12.87;9.47;;;;;;;;;;5093688;28;20452;-67
2022/10/20 09:12:52;;;;;;;13.67;10.30;;;;;;;;;;5093179;28;20431;-67
2022/10/20 09:15:20;;;;;;;11.67;9.37;;;;;;;;;;5093473;28;20506;-67
2022/10/20 09:17:50;;;;;;;12.30;10.47;;;;;;;;;;5093324;28;20448;-67
2022/10/20 09:20:20;;;;;;;13.80;10.30;;;;;;;;;;5093656;28;20458;-67
2022/10/20 09:22:47;;;;;;;11.43;9.77;;;;;;;;;;5093261;28;20447;-67
2022/10/20 09:25:18;;;;;;;11.70;9.43;;;;;;;;;;5093562;28;20476;-66
2022/10/20 09:27:45;;;;;;;12.30;9.70;;;;;;;;;;5093077;28;20444;-67
2022/10/20 09:30:17;;;;;;;15.07;10.00;;;;;;;;;;5093072;28;20440;-67
2022/10/20 09:32:44;;;;;;;11.60;10.50;;;;;;;;;;5093404;28;20531;-67
2022/10/20 09:35:22;;;;;;;12.37;10.90;;;;;;;;;;5092997;28;20446;-67
2022/10/20 09:37:52;;;;;;;12.47;10.93;;;;;;;;;;5093418;28;20447;-67
2022/10/20 09:40:21;;;;;;;13.63;9.70;;;;;;;;;;5093332;28;20437;-68
2022/10/20 09:42:50;;;;;;;13.97;11.13;;;;;;;;;;5093408;28;20444;-67
2022/10/20 09:45:20;;;;;;;12.80;8.97;;;;;;;;;;5093336;28;20446;-67
2022/10/20 09:47:49;;;;;;;10.43;9.40;;;;;;;;;;5093919;28;20425;-68
2022/10/20 09:50:19;;;;;;;10.53;9.40;;;;;;;;;;5093300;28;20450;-67
2022/10/20 09:52:47;;;;;;;10.83;8.60;;;;;;;;;;5093584;28;20447;-67
2022/10/20 09:55:23;;;;;;;14.40;10.07;;;;;;;;;;5093167;28;20440;-67
2022/10/20 09:57:52;;;;;;;11.03;9.30;;;;;;;;;;5093033;28;20445;-66
2022/10/20 10:00:26;;;;;;;11.63;10.17;;;;;;;;;;5093136;28;20451;-67
2022/10/20 10:03:09;;;;;;;10.10;9.13;;;;;;;;;;5093610;28;20448;-66
2022/10/20 10:05:37;;;;;;;11.13;10.00;;;;;;;;;;5092706;28;20951;-66
2022/10/20 10:08:04;;;;;;;12.80;9.47;;;;;;;;;;5093183;28;20445;-66
2022/10/20 10:10:32;;;;;;;9.77;8.87;;;;;;;;;;5093105;28;20452;-66
2022/10/20 10:13:03;;;;;;;10.00;9.10;;;;;;;;;;5093339;28;20474;-67
2022/10/20 10:15:31;;;;;;;11.53;9.53;;;;;;;;;;5092979;28;20513;-66
2022/10/20 10:17:59;;;;;;;11.27;10.07;;;;;;;;;;5092766;28;20444;-66
2022/10/20 10:20:30;;;;;;;12.60;10.83;;;;;;;;;;5093215;28;20446;-67
2022/10/20 10:23:08;;;;;;;11.33;10.27;;;;;;;;;;5092696;28;20438;-67
2022/10/20 10:25:36;;;;;;;10.77;9.70;;;;;;;;;;5096092;28;20811;-67
2022/10/20 10:28:07;;;;;;;10.67;9.57;;;;;;;;;;5096365;28;20954;-67
2022/10/20 10:30:41;;;;;;;13.83;10.37;;;;;;;;;;5097022;28;20787;-67
2022/10/20 10:33:24;;;;;;;11.70;10.50;;;;;;;;;;5096769;28;20410;-67
2022/10/20 10:35:52;;;;;;;11.87;10.30;;;;;;;;;;5096362;28;20476;-66
2022/10/20 10:38:19;;;;;;;12.10;9.43;;;;;;;;;;5096551;28;20448;-67
2022/10/20 10:40:50;;;;;;;11.37;9.13;;;;;;;;;;5096493;28;20471;-67
2022/10/20 10:43:28;;;;;;;15.20;12.70;;;;;;;;;;5096205;28;20426;-67
2022/10/20 10:45:57;;;;;;;12.37;11.07;;;;;;;;;;5096823;28;20447;-67
2022/10/20 10:48:44;;;;;;;16.20;10.60;;;;;;;;;;5096741;28;20437;-67
2022/10/20 10:51:15;;;;;;;10.70;9.60;;;;;;;;;;5096007;28;20934;-67
2022/10/20 10:53:47;;;;;;;14.07;11.93;;;;;;;;;;5096326;28;20440;-67
2022/10/20 10:56:18;;;;;;;15.90;12.07;;;;;;;;;;5095771;28;20470;-67
2022/10/20 10:58:51;;;;;;;14.77;11.30;;;;;;;;;;5095834;28;20435;-67
2022/10/20 11:01:23;;;;;;;11.83;10.73;;;;;;;;;;5095923;28;20432;-67
2022/10/20 11:04:10;;;;;;;11.50;10.40;;;;;;;;;;5095959;28;20437;-66
2022/10/20 11:06:41;;;;;;;12.30;10.87;;;;;;;;;;5096169;28;20472;-67
2022/10/20 11:09:15;;;;;;;10.60;9.50;;;;;;;;;;5096704;28;20756;-67
2022/10/20 11:11:46;;;;;;;11.00;9.77;;;;;;;;;;5095892;28;20433;-67
2022/10/20 11:14:21;;;;;;;12.27;10.83;;;;;;;;;;5095611;28;20982;-67
2022/10/20 11:16:53;;;;;;;14.33;12.33;;;;;;;;;;5095437;28;20987;-67
2022/10/20 11:19:31;;;;;;;12.90;10.80;;;;;;;;;;5095745;28;20434;-67
2022/10/20 11:22:04;;;;;;;11.87;10.60;;;;;;;;;;5095652;28;20437;-66
2022/10/20 11:24:39;;;;;;;17.40;11.47;;;;;;;;;;5095931;28;20467;-67
2022/10/20 11:27:10;;;;;;;12.23;11.07;;;;;;;;;;5095640;28;20439;-67
2022/10/20 11:29:41;;;;;;;12.90;10.80;;;;;;;;;;5095668;28;20433;-67
2022/10/20 11:32:11;;;;;;;16.50;12.20;;;;;;;;;;5095529;28;20445;-67
2022/10/20 11:34:40;;;;;;;12.60;10.77;;;;;;;;;;5095305;28;20438;-66
2022/10/20 11:37:13;;;;;;;12.00;10.77;;;;;;;;;;5095309;28;20488;-66
2022/10/20 11:39:42;;;;;;;12.67;11.37;;;;;;;;;;5095398;28;20441;-67
2022/10/20 11:42:18;;;;;;;12.53;10.30;;;;;;;;;;5095269;28;20442;-67
2022/10/20 11:44:48;;;;;;;14.63;10.87;;;;;;;;;;5095403;28;20438;-66
2022/10/20 11:47:17;;;;;;;30.93;15.73;;;;;;;;;;5094816;28;20440;-67
2022/10/20 11:49:44;;;;;;;16.00;10.80;;;;;;;;;;5095148;28;20447;-67
2022/10/20 11:52:20;;;;;;;19.80;12.23;;;;;;;;;;5094968;28;20449;-67
2022/10/20 11:54:52;;;;;;;14.60;12.43;;;;;;;;;;5095043;28;20449;-67
2022/10/20 11:57:29;;;;;;;13.63;11.70;;;;;;;;;;5095002;28;20493;-67
2022/10/20 12:00:13;;;;;;;13.93;12.00;;;;;;;;;;5095210;28;20842;-67
2022/10/20 12:02:53;;;;;;;20.20;11.60;;;;;;;;;;5094556;28;20916;-67
2022/10/20 12:05:28;;;;;;;14.07;11.53;;;;;;;;;;5095222;28;20455;-66
2022/10/20 12:08:05;;;;;;;13.30;11.17;;;;;;;;;;5094700;28;20533;-66
2022/10/20 12:10:35;;;;;;;14.90;10.53;;;;;;;;;;5095248;28;20446;-67
2022/10/20 12:13:08;;;;;;;26.77;13.00;;;;;;;;;;5095045;28;20427;-67
2022/10/20 12:15:45;;;;;;;41.33;14.10;;;;;;;;;;5094407;28;20434;-66
2022/10/20 12:18:17;;;;;;;34.00;21.10;;;;;;;;;;5094630;28;20456;-67
2022/10/20 12:21:02;;;;;;;16.40;12.93;;;;;;;;;;5094588;28;20439;-66
2022/10/20 12:23:50;;;;;;;13.40;11.77;;;;;;;;;;5094242;28;20905;-67
2022/10/20 12:26:36;;;;;;;13.57;11.60;;;;;;;;;;5094182;28;20961;-66
2022/10/20 12:29:18;;;;;;;18.60;12.40;;;;;;;;;;5094030;28;20446;-66
2022/10/20 12:32:00;;;;;;;15.03;11.80;;;;;;;;;;5093681;28;20438;-66
2022/10/20 12:34:39;;;;;;;13.90;11.97;;;;;;;;;;5060875;28;20429;-66
2022/10/20 12:37:09;;;;;;;20.63;14.43;;;;;;;;;;5094254;28;20491;-67
2022/10/20 12:39:36;;;;;;;16.40;14.30;;;;;;;;;;5075334;28;20447;-67
2022/10/20 12:42:04;;;;;;;16.30;14.17;;;;;;;;;;5073763;28;20542;-69
2022/10/20 12:44:33;;;;;;;19.60;14.70;;;;;;;;;;5073744;28;20440;-70
2022/10/20 12:47:04;;;;;;;20.23;15.83;;;;;;;;;;5073143;28;20801;-66
2022/10/20 12:49:34;;;;;;;22.63;14.77;;;;;;;;;;5073851;28;20446;-66
2022/10/20 12:52:01;;;;;;;20.57;15.00;;;;;;;;;;5073255;28;20939;-65
2022/10/20 12:54:34;;;;;;;19.07;15.83;;;;;;;;;;5073560;28;20454;-66
2022/10/20 12:57:04;;;;;;;17.93;14.37;;;;;;;;;;5073505;28;20486;-65
2022/10/20 12:59:36;;;;;;;22.83;16.83;;;;;;;;;;5073602;28;20446;-66
2022/10/20 13:02:22;;;;;;;22.27;15.40;;;;;;;;;;5073643;28;20433;-66
2022/10/20 13:04:57;;;;;;;18.43;16.00;;;;;;;;;;5073132;28;20777;-65
2022/10/20 13:07:58;;;;;;;24.47;19.90;;;;;;;;;;5073115;28;20594;-66
2022/10/20 13:10:29;;;;;;;18.67;15.40;;;;;;;;;;5030188;28;20457;-66
2022/10/20 13:13:16;;;;;;;17.47;15.33;;;;;;;;;;5062768;28;20446;-65
2022/10/20 13:15:46;;;;;;;23.07;17.87;;;;;;;;;;5092821;28;20459;-65
2022/10/20 13:18:16;;;;;;;17.57;15.70;;;;;;;;;;5092258;28;20476;-66
2022/10/20 13:20:47;;;;;;;26.50;16.40;;;;;;;;;;5093140;28;20427;-65
2022/10/20 13:23:15;;;;;;;18.37;16.20;;;;;;;;;;5092755;28;20428;-65
2022/10/20 13:25:45;;;;;;;22.10;16.60;;;;;;;;;;5092427;28;20480;-65
2022/10/20 13:28:17;;;;;;;20.13;16.30;;;;;;;;;;5093077;28;20449;-65
2022/10/20 13:30:54;;;;;;;26.20;18.77;;;;;;;;;;5092863;28;20434;-66
2022/10/20 13:33:24;;;;;;;26.60;19.63;;;;;;;;;;5092798;28;20525;-65
2022/10/20 13:35:56;;;;;;;29.10;21.63;;;;;;;;;;5093337;28;20915;-65
2022/10/20 13:38:26;;;;;;;21.03;16.90;;;;;;;;;;5093316;28;20476;-66
2022/10/20 13:40:59;;;;;;;27.63;17.60;;;;;;;;;;5092989;28;20450;-65
2022/10/20 13:43:30;;;;;;;20.07;16.83;;;;;;;;;;5093464;28;20428;-65
2022/10/20 13:46:18;;;;;;;20.67;16.60;;;;;;;;;;5093183;28;20516;-65
2022/10/20 13:48:53;;;;;;;27.73;17.63;;;;;;;;;;5088432;28;20573;-65
2022/10/20 13:51:24;;;;;;;22.80;16.07;;;;;;;;;;5092720;28;20899;-65
2022/10/20 13:53:53;;;;;;;25.43;18.80;;;;;;;;;;5092802;28;20431;-65
2022/10/20 13:56:22;;;;;;;21.90;15.70;;;;;;;;;;5093482;28;20531;-66
2022/10/20 13:58:59;;;;;;;25.70;15.97;;;;;;;;;;5093246;28;20444;-66
2022/10/20 14:01:26;;;;;;;20.40;15.53;;;;;;;;;;5097323;28;20503;-65
2022/10/20 14:03:53;;;;;;;22.73;17.07;;;;;;;;;;5096169;28;20777;-65
2022/10/20 14:06:31;;;;;;;20.30;16.33;;;;;;;;;;5096223;28;20955;-65
2022/10/20 14:09:00;;;;;;;24.50;17.03;;;;;;;;;;5096167;28;20816;-66
2022/10/20 14:11:29;;;;;;;19.30;15.93;;;;;;;;;;5095929;28;20436;-65
2022/10/20 14:13:57;;;;;;;22.10;17.67;;;;;;;;;;5096135;28;20449;-65
2022/10/20 14:16:27;;;;;;;26.67;17.13;;;;;;;;;;5096299;28;20459;-66
2022/10/20 14:19:01;;;;;;;29.67;17.80;;;;;;;;;;5096005;28;20531;-66
2022/10/20 14:21:28;;;;;;;35.77;17.07;;;;;;;;;;5096646;28;20767;-65
2022/10/20 14:24:01;;;;;;;24.93;17.27;;;;;;;;;;5096008;28;20557;-66
2022/10/20 14:26:29;;;;;;;20.10;17.70;;;;;;;;;;5096130;28;20532;-66
2022/10/20 14:28:56;;;;;;;28.73;18.50;;;;;;;;;;5096395;28;20449;-66
2022/10/20 14:31:24;;;;;;;20.53;17.70;;;;;;;;;;5096189;28;20463;-66
2022/10/20 14:33:52;;;;;;;25.47;18.77;;;;;;;;;;5096069;28;20440;-66
2022/10/20 14:36:21;;;;;;;25.60;19.40;;;;;;;;;;5096170;28;20450;-66
2022/10/20 14:38:49;;;;;;;29.20;21.13;;;;;;;;;;5095586;28;20994;-66